sensor_id;sensor_type;location;lat;lon;timestamp;pressure;altitude;pressure_sealevel;temperature;humidity
7268;BME280;3675;43.276;27.962;2024-03-02T00:00:22;97907.69;;;6.56;90.62
7268;BME280;3675;43.276;27.962;2024-03-02T00:02:54;97913.47;;;6.63;89.95
7268;BME280;3675;43.276;27.962;2024-03-02T00:05:25;97907.97;;;6.47;90.66
7268;BME280;3675;43.276;27.962;2024-03-02T00:07:59;97899.41;;;6.47;91.14
7268;BME280;3675;43.276;27.962;2024-03-02T00:10:38;97905.06;;;6.58;89.91
7268;BME280;3675;43.276;27.962;2024-03-02T00:13:10;97909.41;;;6.56;90.77
7268;BME280;3675;43.276;27.962;2024-03-02T00:15:42;97895.56;;;6.60;90.26
7268;BME280;3675;43.276;27.962;2024-03-02T00:18:20;97890.50;;;6.58;90.06
7268;BME280;3675;43.276;27.962;2024-03-02T00:20:53;97889.91;;;6.50;90.49
7268;BME280;3675;43.276;27.962;2024-03-02T00:23:30;97890.66;;;6.54;90.38
7268;BME280;3675;43.276;27.962;2024-03-02T00:26:01;97895.72;;;6.55;89.93
7268;BME280;3675;43.276;27.962;2024-03-02T00:28:33;97889.06;;;6.50;90.44
7268;BME280;3675;43.276;27.962;2024-03-02T00:31:06;97887.97;;;6.57;89.82
7268;BME280;3675;43.276;27.962;2024-03-02T00:33:41;97877.69;;;6.57;90.25
7268;BME280;3675;43.276;27.962;2024-03-02T00:36:15;97876.78;;;6.59;89.90
7268;BME280;3675;43.276;27.962;2024-03-02T00:38:50;97876.84;;;6.56;89.84
7268;BME280;3675;43.276;27.962;2024-03-02T00:41:22;97871.81;;;6.53;89.32
7268;BME280;3675;43.276;27.962;2024-03-02T00:44:01;97871.69;;;6.58;89.71
7268;BME280;3675;43.276;27.962;2024-03-02T00:46:34;97868.22;;;6.59;89.66
7268;BME280;3675;43.276;27.962;2024-03-02T00:49:12;97860.88;;;6.47;89.84
7268;BME280;3675;43.276;27.962;2024-03-02T00:51:50;97854.97;;;6.45;89.65
7268;BME280;3675;43.276;27.962;2024-03-02T00:54:26;97851.22;;;6.55;89.46
7268;BME280;3675;43.276;27.962;2024-03-02T00:56:57;97849.47;;;6.55;89.05
7268;BME280;3675;43.276;27.962;2024-03-02T00:59:28;97846.91;;;6.55;89.00
7268;BME280;3675;43.276;27.962;2024-03-02T01:01:59;97848.13;;;6.45;88.85
7268;BME280;3675;43.276;27.962;2024-03-02T01:04:30;97850.44;;;6.53;88.79
7268;BME280;3675;43.276;27.962;2024-03-02T01:07:01;97851.44;;;6.49;89.16
7268;BME280;3675;43.276;27.962;2024-03-02T01:09:34;97854.47;;;6.60;88.72
7268;BME280;3675;43.276;27.962;2024-03-02T01:12:06;97849.19;;;6.64;88.55
7268;BME280;3675;43.276;27.962;2024-03-02T01:14:37;97853.66;;;6.59;88.24
7268;BME280;3675;43.276;27.962;2024-03-02T01:17:08;97849.41;;;6.58;88.60
7268;BME280;3675;43.276;27.962;2024-03-02T01:19:41;97834.28;;;6.49;88.95
7268;BME280;3675;43.276;27.962;2024-03-02T01:22:12;97823.50;;;6.38;89.47
7268;BME280;3675;43.276;27.962;2024-03-02T01:24:46;97817.63;;;6.35;89.38
7268;BME280;3675;43.276;27.962;2024-03-02T01:27:17;97821.34;;;6.26;90.23
7268;BME280;3675;43.276;27.962;2024-03-02T01:29:48;97807.03;;;6.19;90.30
7268;BME280;3675;43.276;27.962;2024-03-02T01:32:19;97805.69;;;6.07;90.77
7268;BME280;3675;43.276;27.962;2024-03-02T01:34:50;97802.56;;;5.98;91.48
7268;BME280;3675;43.276;27.962;2024-03-02T01:37:21;97806.88;;;5.97;91.16
7268;BME280;3675;43.276;27.962;2024-03-02T01:39:55;97807.63;;;6.01;91.33
7268;BME280;3675;43.276;27.962;2024-03-02T01:42:26;97808.31;;;6.06;91.25
7268;BME280;3675;43.276;27.962;2024-03-02T01:44:58;97811.56;;;6.11;90.67
7268;BME280;3675;43.276;27.962;2024-03-02T01:47:29;97814.34;;;6.05;90.56
7268;BME280;3675;43.276;27.962;2024-03-02T01:50:00;97814.47;;;6.00;91.58
7268;BME280;3675;43.276;27.962;2024-03-02T01:52:31;97799.97;;;5.99;91.24
7268;BME280;3675;43.276;27.962;2024-03-02T01:55:05;97795.22;;;5.85;92.17
7268;BME280;3675;43.276;27.962;2024-03-02T01:57:38;97797.78;;;5.87;92.38
7268;BME280;3675;43.276;27.962;2024-03-02T02:00:11;97820.03;;;5.85;92.29
7268;BME280;3675;43.276;27.962;2024-03-02T02:02:42;97826.00;;;5.87;92.37
7268;BME280;3675;43.276;27.962;2024-03-02T02:05:14;97824.00;;;5.97;92.46
7268;BME280;3675;43.276;27.962;2024-03-02T02:07:45;97819.31;;;6.09;91.72
7268;BME280;3675;43.276;27.962;2024-03-02T02:10:18;97808.06;;;6.13;91.86
7268;BME280;3675;43.276;27.962;2024-03-02T02:12:49;97803.19;;;6.06;91.50
7268;BME280;3675;43.276;27.962;2024-03-02T02:15:24;97785.88;;;6.11;91.77
7268;BME280;3675;43.276;27.962;2024-03-02T02:17:56;97769.06;;;6.02;91.54
7268;BME280;3675;43.276;27.962;2024-03-02T02:20:27;97773.44;;;5.99;91.59
7268;BME280;3675;43.276;27.962;2024-03-02T02:22:59;97770.25;;;5.92;91.90
7268;BME280;3675;43.276;27.962;2024-03-02T02:25:30;97755.84;;;5.88;92.11
7268;BME280;3675;43.276;27.962;2024-03-02T02:28:01;97759.31;;;5.85;92.58
7268;BME280;3675;43.276;27.962;2024-03-02T02:30:32;97760.13;;;5.86;91.98
7268;BME280;3675;43.276;27.962;2024-03-02T02:33:04;97757.09;;;5.75;92.84
7268;BME280;3675;43.276;27.962;2024-03-02T02:35:35;97762.16;;;5.76;93.06
7268;BME280;3675;43.276;27.962;2024-03-02T02:38:09;97752.59;;;5.81;92.94
7268;BME280;3675;43.276;27.962;2024-03-02T02:40:40;97756.25;;;5.74;93.58
7268;BME280;3675;43.276;27.962;2024-03-02T02:43:11;97756.41;;;5.68;93.73
7268;BME280;3675;43.276;27.962;2024-03-02T02:45:42;97752.72;;;5.77;93.42
7268;BME280;3675;43.276;27.962;2024-03-02T02:48:13;97755.44;;;5.72;93.77
7268;BME280;3675;43.276;27.962;2024-03-02T02:50:44;97757.00;;;5.76;93.44
7268;BME280;3675;43.276;27.962;2024-03-02T02:53:17;97758.06;;;5.71;93.90
7268;BME280;3675;43.276;27.962;2024-03-02T02:55:48;97763.69;;;5.54;94.74
7268;BME280;3675;43.276;27.962;2024-03-02T02:58:19;97766.13;;;5.59;94.43
7268;BME280;3675;43.276;27.962;2024-03-02T03:00:50;97757.38;;;5.66;94.20
7268;BME280;3675;43.276;27.962;2024-03-02T03:03:24;97758.28;;;5.63;94.20
7268;BME280;3675;43.276;27.962;2024-03-02T03:05:55;97759.13;;;5.64;94.19
7268;BME280;3675;43.276;27.962;2024-03-02T03:08:29;97776.50;;;5.54;94.51
7268;BME280;3675;43.276;27.962;2024-03-02T03:11:00;97792.50;;;5.62;94.24
7268;BME280;3675;43.276;27.962;2024-03-02T03:13:31;97788.41;;;5.57;94.37
7268;BME280;3675;43.276;27.962;2024-03-02T03:16:03;97797.88;;;5.55;94.48
7268;BME280;3675;43.276;27.962;2024-03-02T03:18:34;97798.69;;;5.57;94.15
7268;BME280;3675;43.276;27.962;2024-03-02T03:21:06;97797.75;;;5.59;94.29
7268;BME280;3675;43.276;27.962;2024-03-02T03:23:39;97794.28;;;5.60;94.28
7268;BME280;3675;43.276;27.962;2024-03-02T03:26:10;97793.41;;;5.61;94.50
7268;BME280;3675;43.276;27.962;2024-03-02T03:28:41;97795.75;;;5.69;94.12
7268;BME280;3675;43.276;27.962;2024-03-02T03:31:12;97792.38;;;5.67;93.75
7268;BME280;3675;43.276;27.962;2024-03-02T03:33:43;97782.25;;;5.62;94.13
7268;BME280;3675;43.276;27.962;2024-03-02T03:36:14;97786.44;;;5.66;93.58
7268;BME280;3675;43.276;27.962;2024-03-02T03:38:47;97775.41;;;5.63;93.38
7268;BME280;3675;43.276;27.962;2024-03-02T03:41:19;97775.59;;;5.57;93.06
7268;BME280;3675;43.276;27.962;2024-03-02T03:43:50;97779.03;;;5.56;93.44
7268;BME280;3675;43.276;27.962;2024-03-02T03:46:20;97772.22;;;5.55;93.04
7268;BME280;3675;43.276;27.962;2024-03-02T03:48:51;97781.84;;;5.48;93.38
7268;BME280;3675;43.276;27.962;2024-03-02T03:51:23;97773.22;;;5.51;93.38
7268;BME280;3675;43.276;27.962;2024-03-02T03:53:57;97782.59;;;5.52;93.31
7268;BME280;3675;43.276;27.962;2024-03-02T03:56:27;97781.50;;;5.31;93.59
7268;BME280;3675;43.276;27.962;2024-03-02T03:58:58;97782.69;;;5.49;93.16
7268;BME280;3675;43.276;27.962;2024-03-02T04:01:30;97782.59;;;5.52;93.54
7268;BME280;3675;43.276;27.962;2024-03-02T04:04:01;97773.44;;;5.43;93.77
7268;BME280;3675;43.276;27.962;2024-03-02T04:06:32;97775.81;;;5.49;93.49
7268;BME280;3675;43.276;27.962;2024-03-02T04:09:06;97775.72;;;5.52;93.79
7268;BME280;3675;43.276;27.962;2024-03-02T04:11:37;97775.13;;;5.44;93.94
7268;BME280;3675;43.276;27.962;2024-03-02T04:14:08;97776.88;;;5.42;93.87
7268;BME280;3675;43.276;27.962;2024-03-02T04:16:40;97776.78;;;5.45;93.72
7268;BME280;3675;43.276;27.962;2024-03-02T04:19:11;97776.66;;;5.50;93.62
7268;BME280;3675;43.276;27.962;2024-03-02T04:21:42;97783.84;;;5.38;93.65
7268;BME280;3675;43.276;27.962;2024-03-02T04:24:16;97786.13;;;5.48;93.95
7268;BME280;3675;43.276;27.962;2024-03-02T04:26:47;97778.72;;;5.38;94.24
7268;BME280;3675;43.276;27.962;2024-03-02T04:29:17;97786.50;;;5.35;94.57
7268;BME280;3675;43.276;27.962;2024-03-02T04:31:48;97786.66;;;5.29;94.71
7268;BME280;3675;43.276;27.962;2024-03-02T04:34:19;97789.88;;;5.36;94.94
7268;BME280;3675;43.276;27.962;2024-03-02T04:36:50;97787.88;;;5.46;94.51
7268;BME280;3675;43.276;27.962;2024-03-02T04:39:24;97781.00;;;5.48;94.52
7268;BME280;3675;43.276;27.962;2024-03-02T04:41:55;97783.63;;;5.44;94.65
7268;BME280;3675;43.276;27.962;2024-03-02T04:44:26;97781.19;;;5.40;94.62
7268;BME280;3675;43.276;27.962;2024-03-02T04:46:57;97793.81;;;5.48;94.59
7268;BME280;3675;43.276;27.962;2024-03-02T04:49:28;97794.44;;;5.56;93.83
7268;BME280;3675;43.276;27.962;2024-03-02T04:51:59;97791.72;;;5.60;93.61
7268;BME280;3675;43.276;27.962;2024-03-02T04:54:33;97791.59;;;5.65;93.69
7268;BME280;3675;43.276;27.962;2024-03-02T04:57:24;97797.28;;;5.74;93.26
7268;BME280;3675;43.276;27.962;2024-03-02T04:59:52;97802.13;;;5.83;92.61
7268;BME280;3675;43.276;27.962;2024-03-02T05:02:23;97800.25;;;5.90;92.36
7268;BME280;3675;43.276;27.962;2024-03-02T05:04:54;97797.63;;;5.92;91.94
7268;BME280;3675;43.276;27.962;2024-03-02T05:07:25;97792.66;;;5.87;92.29
7268;BME280;3675;43.276;27.962;2024-03-02T05:09:59;97791.91;;;5.82;92.03
7268;BME280;3675;43.276;27.962;2024-03-02T05:12:30;97802.78;;;5.92;92.46
7268;BME280;3675;43.276;27.962;2024-03-02T05:15:23;97802.13;;;5.83;92.46
7268;BME280;3675;43.276;27.962;2024-03-02T05:17:54;97796.66;;;5.96;92.03
7268;BME280;3675;43.276;27.962;2024-03-02T05:20:25;97795.94;;;5.91;92.01
7268;BME280;3675;43.276;27.962;2024-03-02T05:22:56;97799.19;;;5.97;92.13
7268;BME280;3675;43.276;27.962;2024-03-02T05:25:30;97803.41;;;5.98;91.78
7268;BME280;3675;43.276;27.962;2024-03-02T05:28:03;97793.75;;;6.06;91.90
7268;BME280;3675;43.276;27.962;2024-03-02T05:30:34;97800.09;;;5.95;91.81
7268;BME280;3675;43.276;27.962;2024-03-02T05:33:05;97803.53;;;5.94;91.89
7268;BME280;3675;43.276;27.962;2024-03-02T05:35:36;97802.88;;;5.89;92.28
7268;BME280;3675;43.276;27.962;2024-03-02T05:38:07;97795.22;;;5.85;92.31
7268;BME280;3675;43.276;27.962;2024-03-02T05:40:41;97787.50;;;5.87;92.17
7268;BME280;3675;43.276;27.962;2024-03-02T05:43:12;97789.59;;;5.74;92.91
7268;BME280;3675;43.276;27.962;2024-03-02T05:45:43;97790.81;;;5.91;92.51
7268;BME280;3675;43.276;27.962;2024-03-02T05:48:14;97790.09;;;5.85;92.28
7268;BME280;3675;43.276;27.962;2024-03-02T05:50:45;97790.09;;;5.85;93.00
7268;BME280;3675;43.276;27.962;2024-03-02T05:53:16;97781.41;;;5.91;92.50
7268;BME280;3675;43.276;27.962;2024-03-02T05:55:49;97780.59;;;5.89;92.63
7268;BME280;3675;43.276;27.962;2024-03-02T05:58:23;97773.75;;;5.90;92.59
7268;BME280;3675;43.276;27.962;2024-03-02T06:01:05;97770.00;;;6.00;92.43
7268;BME280;3675;43.276;27.962;2024-03-02T06:03:36;97762.25;;;6.01;91.60
7268;BME280;3675;43.276;27.962;2024-03-02T06:06:07;97766.41;;;6.05;91.40
7268;BME280;3675;43.276;27.962;2024-03-02T06:08:38;97761.16;;;6.08;91.69
7268;BME280;3675;43.276;27.962;2024-03-02T06:11:12;97756.63;;;6.16;91.30
7268;BME280;3675;43.276;27.962;2024-03-02T06:13:42;97759.84;;;6.23;91.24
7268;BME280;3675;43.276;27.962;2024-03-02T06:16:13;97761.56;;;6.22;91.08
7268;BME280;3675;43.276;27.962;2024-03-02T06:18:44;97761.34;;;6.28;90.98
7268;BME280;3675;43.276;27.962;2024-03-02T06:21:16;97757.88;;;6.29;90.51
7268;BME280;3675;43.276;27.962;2024-03-02T06:23:47;97764.13;;;6.22;90.68
7268;BME280;3675;43.276;27.962;2024-03-02T06:26:20;97763.00;;;6.31;90.83
7268;BME280;3675;43.276;27.962;2024-03-02T06:28:52;97764.53;;;6.37;90.59
7268;BME280;3675;43.276;27.962;2024-03-02T06:31:24;97760.72;;;6.47;90.24
7268;BME280;3675;43.276;27.962;2024-03-02T06:33:54;97765.13;;;6.43;90.74
7268;BME280;3675;43.276;27.962;2024-03-02T06:36:25;97758.13;;;6.48;90.49
7268;BME280;3675;43.276;27.962;2024-03-02T06:38:57;97760.41;;;6.56;90.31
7268;BME280;3675;43.276;27.962;2024-03-02T06:41:30;97756.81;;;6.61;90.06
7268;BME280;3675;43.276;27.962;2024-03-02T06:44:01;97761.34;;;6.55;90.51
7268;BME280;3675;43.276;27.962;2024-03-02T06:46:33;97760.22;;;6.62;90.26
7268;BME280;3675;43.276;27.962;2024-03-02T06:49:04;97764.25;;;6.69;89.77
7268;BME280;3675;43.276;27.962;2024-03-02T06:51:35;97771.09;;;6.68;89.40
7268;BME280;3675;43.276;27.962;2024-03-02T06:54:06;97765.88;;;6.71;89.64
7268;BME280;3675;43.276;27.962;2024-03-02T06:56:39;97761.44;;;6.76;88.89
7268;BME280;3675;43.276;27.962;2024-03-02T06:59:10;97758.75;;;6.80;90.02
7268;BME280;3675;43.276;27.962;2024-03-02T07:01:41;97766.13;;;6.89;89.48
7268;BME280;3675;43.276;27.962;2024-03-02T07:04:12;97761.72;;;6.92;89.68
7268;BME280;3675;43.276;27.962;2024-03-02T07:06:43;97766.31;;;7.07;88.30
7268;BME280;3675;43.276;27.962;2024-03-02T07:09:14;97762.78;;;7.10;88.85
7268;BME280;3675;43.276;27.962;2024-03-02T07:11:47;97771.94;;;7.17;88.19
7268;BME280;3675;43.276;27.962;2024-03-02T07:14:19;97779.09;;;7.32;87.47
7268;BME280;3675;43.276;27.962;2024-03-02T07:17:05;97780.00;;;7.31;86.88
7268;BME280;3675;43.276;27.962;2024-03-02T07:19:38;97777.38;;;7.33;87.18
7268;BME280;3675;43.276;27.962;2024-03-02T07:22:09;97776.16;;;7.43;86.86
7268;BME280;3675;43.276;27.962;2024-03-02T07:24:40;97781.88;;;7.49;86.93
7268;BME280;3675;43.276;27.962;2024-03-02T07:27:14;97778.63;;;7.44;87.00
7268;BME280;3675;43.276;27.962;2024-03-02T07:29:46;97780.53;;;7.39;87.04
7268;BME280;3675;43.276;27.962;2024-03-02T07:32:16;97782.22;;;7.40;86.97
7268;BME280;3675;43.276;27.962;2024-03-02T07:34:47;97779.56;;;7.43;86.12
7268;BME280;3675;43.276;27.962;2024-03-02T07:37:18;97777.53;;;7.51;86.18
7268;BME280;3675;43.276;27.962;2024-03-02T07:39:49;97775.50;;;7.59;86.43
7268;BME280;3675;43.276;27.962;2024-03-02T07:42:23;97772.97;;;7.58;85.70
7268;BME280;3675;43.276;27.962;2024-03-02T07:44:54;97776.34;;;7.60;85.23
7268;BME280;3675;43.276;27.962;2024-03-02T07:47:25;97769.47;;;7.60;85.39
7268;BME280;3675;43.276;27.962;2024-03-02T07:49:56;97764.97;;;7.65;84.32
7268;BME280;3675;43.276;27.962;2024-03-02T07:52:27;97776.09;;;7.66;85.06
7268;BME280;3675;43.276;27.962;2024-03-02T07:54:58;97774.66;;;7.59;84.85
7268;BME280;3675;43.276;27.962;2024-03-02T07:57:32;97772.94;;;7.59;85.39
7268;BME280;3675;43.276;27.962;2024-03-02T08:00:04;97774.53;;;7.62;84.87
7268;BME280;3675;43.276;27.962;2024-03-02T08:02:38;97768.66;;;7.58;85.39
7268;BME280;3675;43.276;27.962;2024-03-02T08:05:10;97774.47;;;7.63;84.74
7268;BME280;3675;43.276;27.962;2024-03-02T08:07:41;97766.44;;;7.49;85.86
7268;BME280;3675;43.276;27.962;2024-03-02T08:10:12;97769.34;;;7.63;85.75
7268;BME280;3675;43.276;27.962;2024-03-02T08:12:46;97766.09;;;7.80;85.03
7268;BME280;3675;43.276;27.962;2024-03-02T08:15:17;97764.50;;;7.78;84.20
7268;BME280;3675;43.276;27.962;2024-03-02T08:17:48;97764.59;;;7.75;84.85
7268;BME280;3675;43.276;27.962;2024-03-02T08:20:19;97767.25;;;7.73;85.41
7268;BME280;3675;43.276;27.962;2024-03-02T08:22:50;97758.50;;;7.77;84.79
7268;BME280;3675;43.276;27.962;2024-03-02T08:25:22;97764.50;;;7.78;84.88
7268;BME280;3675;43.276;27.962;2024-03-02T08:27:56;97768.50;;;7.85;84.89
7268;BME280;3675;43.276;27.962;2024-03-02T08:30:27;97774.25;;;7.91;83.80
7268;BME280;3675;43.276;27.962;2024-03-02T08:32:58;97762.16;;;7.93;84.25
7268;BME280;3675;43.276;27.962;2024-03-02T08:35:29;97764.00;;;7.90;84.15
7268;BME280;3675;43.276;27.962;2024-03-02T08:38:04;97760.41;;;7.94;83.65
7268;BME280;3675;43.276;27.962;2024-03-02T08:40:35;97757.88;;;7.92;84.51
7268;BME280;3675;43.276;27.962;2024-03-02T08:43:09;97760.28;;;7.97;84.01
7268;BME280;3675;43.276;27.962;2024-03-02T08:45:40;97764.53;;;7.98;84.21
7268;BME280;3675;43.276;27.962;2024-03-02T08:48:11;97770.34;;;8.03;83.86
7268;BME280;3675;43.276;27.962;2024-03-02T08:50:42;97776.22;;;8.06;83.52
7268;BME280;3675;43.276;27.962;2024-03-02T08:53:13;97774.28;;;8.11;82.74
7268;BME280;3675;43.276;27.962;2024-03-02T08:55:46;97772.50;;;8.13;82.38
7268;BME280;3675;43.276;27.962;2024-03-02T08:58:19;97773.59;;;8.30;82.20
7268;BME280;3675;43.276;27.962;2024-03-02T09:00:50;97776.44;;;8.44;81.90
7268;BME280;3675;43.276;27.962;2024-03-02T09:03:22;97783.09;;;8.49;80.36
7268;BME280;3675;43.276;27.962;2024-03-02T09:05:53;97785.91;;;8.64;80.52
7268;BME280;3675;43.276;27.962;2024-03-02T09:08:25;97797.13;;;8.63;79.21
7268;BME280;3675;43.276;27.962;2024-03-02T09:10:56;97796.72;;;8.51;79.21
7268;BME280;3675;43.276;27.962;2024-03-02T09:13:31;97793.63;;;8.64;79.38
7268;BME280;3675;43.276;27.962;2024-03-02T09:16:02;97790.94;;;8.67;79.11
7268;BME280;3675;43.276;27.962;2024-03-02T09:18:33;97795.16;;;8.68;79.25
7268;BME280;3675;43.276;27.962;2024-03-02T09:21:04;97799.03;;;8.78;78.10
7268;BME280;3675;43.276;27.962;2024-03-02T09:23:35;97799.56;;;8.86;77.25
7268;BME280;3675;43.276;27.962;2024-03-02T09:26:07;97793.88;;;8.78;76.26
7268;BME280;3675;43.276;27.962;2024-03-02T09:28:42;97793.84;;;8.79;76.24
7268;BME280;3675;43.276;27.962;2024-03-02T09:31:13;97787.63;;;8.63;77.16
7268;BME280;3675;43.276;27.962;2024-03-02T09:33:44;97785.25;;;8.58;79.08
7268;BME280;3675;43.276;27.962;2024-03-02T09:36:19;97783.22;;;8.67;78.51
7268;BME280;3675;43.276;27.962;2024-03-02T09:38:50;97777.13;;;8.68;79.25
7268;BME280;3675;43.276;27.962;2024-03-02T09:41:21;97771.78;;;8.72;79.51
7268;BME280;3675;43.276;27.962;2024-03-02T09:43:55;97783.31;;;8.84;78.88
7268;BME280;3675;43.276;27.962;2024-03-02T09:46:25;97786.47;;;8.90;77.99
7268;BME280;3675;43.276;27.962;2024-03-02T09:48:57;97790.22;;;8.83;77.24
7268;BME280;3675;43.276;27.962;2024-03-02T09:51:28;97782.75;;;8.77;78.08
7268;BME280;3675;43.276;27.962;2024-03-02T09:54:01;97775.94;;;8.95;77.83
7268;BME280;3675;43.276;27.962;2024-03-02T09:56:47;97772.84;;;9.07;77.08
7268;BME280;3675;43.276;27.962;2024-03-02T09:59:21;97770.28;;;9.07;77.28
7268;BME280;3675;43.276;27.962;2024-03-02T10:01:56;97757.88;;;9.15;77.93
7268;BME280;3675;43.276;27.962;2024-03-02T10:04:29;97769.03;;;9.16;77.23
7268;BME280;3675;43.276;27.962;2024-03-02T10:07:10;97761.91;;;9.21;76.50
7268;BME280;3675;43.276;27.962;2024-03-02T10:09:43;97760.66;;;9.29;76.29
7268;BME280;3675;43.276;27.962;2024-03-02T10:12:15;97759.69;;;9.32;76.04
7268;BME280;3675;43.276;27.962;2024-03-02T10:14:49;97762.06;;;9.36;76.32
7268;BME280;3675;43.276;27.962;2024-03-02T10:17:35;97764.44;;;9.22;76.85
7268;BME280;3675;43.276;27.962;2024-03-02T10:20:22;97767.56;;;9.10;76.39
7268;BME280;3675;43.276;27.962;2024-03-02T10:22:53;97769.66;;;9.02;77.12
7268;BME280;3675;43.276;27.962;2024-03-02T10:25:31;97767.06;;;9.02;77.54
7268;BME280;3675;43.276;27.962;2024-03-02T10:28:17;97766.47;;;8.95;77.66
7268;BME280;3675;43.276;27.962;2024-03-02T10:30:51;97766.13;;;9.03;76.38
7268;BME280;3675;43.276;27.962;2024-03-02T10:33:22;97758.94;;;8.91;76.79
7268;BME280;3675;43.276;27.962;2024-03-02T10:35:55;97772.88;;;8.87;77.29
7268;BME280;3675;43.276;27.962;2024-03-02T10:38:26;97753.22;;;8.84;77.66
7268;BME280;3675;43.276;27.962;2024-03-02T10:40:58;97753.97;;;8.86;77.65
7268;BME280;3675;43.276;27.962;2024-03-02T10:43:31;97747.38;;;8.99;78.17
7268;BME280;3675;43.276;27.962;2024-03-02T10:46:05;97755.00;;;9.02;77.39
7268;BME280;3675;43.276;27.962;2024-03-02T10:48:37;97741.72;;;8.91;77.74
7268;BME280;3675;43.276;27.962;2024-03-02T10:51:11;97738.13;;;8.95;77.49
7268;BME280;3675;43.276;27.962;2024-03-02T10:53:42;97735.38;;;8.98;76.83
7268;BME280;3675;43.276;27.962;2024-03-02T10:56:18;97734.69;;;8.95;77.38
7268;BME280;3675;43.276;27.962;2024-03-02T10:58:56;97732.59;;;9.03;76.97
7268;BME280;3675;43.276;27.962;2024-03-02T11:01:34;97733.25;;;9.08;77.25
7268;BME280;3675;43.276;27.962;2024-03-02T11:04:09;97731.00;;;9.00;76.55
7268;BME280;3675;43.276;27.962;2024-03-02T11:06:47;97727.94;;;8.92;77.06
7268;BME280;3675;43.276;27.962;2024-03-02T11:09:21;97720.56;;;9.03;77.56
7268;BME280;3675;43.276;27.962;2024-03-02T11:12:03;97717.78;;;9.08;77.29
7268;BME280;3675;43.276;27.962;2024-03-02T11:14:39;97711.72;;;9.28;76.50
7268;BME280;3675;43.276;27.962;2024-03-02T11:17:14;97718.91;;;9.40;76.29
7268;BME280;3675;43.276;27.962;2024-03-02T11:19:46;97711.09;;;9.41;76.65
7268;BME280;3675;43.276;27.962;2024-03-02T11:22:18;97715.63;;;9.36;75.98
7268;BME280;3675;43.276;27.962;2024-03-02T11:24:49;97723.94;;;9.24;74.13
7268;BME280;3675;43.276;27.962;2024-03-02T11:28:00;97727.06;;;8.93;76.41
7268;BME280;3675;43.276;27.962;2024-03-02T11:30:49;97721.72;;;8.78;77.43
7268;BME280;3675;43.276;27.962;2024-03-02T11:33:27;97719.63;;;8.86;77.63
7268;BME280;3675;43.276;27.962;2024-03-02T11:35:58;97717.53;;;8.94;77.24
7268;BME280;3675;43.276;27.962;2024-03-02T11:38:31;97716.31;;;9.02;76.48
7268;BME280;3675;43.276;27.962;2024-03-02T11:41:06;97712.75;;;9.05;76.65
7268;BME280;3675;43.276;27.962;2024-03-02T11:43:39;97703.72;;;9.15;75.99
7268;BME280;3675;43.276;27.962;2024-03-02T11:46:11;97700.78;;;9.23;76.14
7268;BME280;3675;43.276;27.962;2024-03-02T11:48:46;97697.63;;;9.35;75.66
7268;BME280;3675;43.276;27.962;2024-03-02T11:51:17;97701.69;;;9.22;75.51
7268;BME280;3675;43.276;27.962;2024-03-02T11:53:48;97704.34;;;9.20;76.23
7268;BME280;3675;43.276;27.962;2024-03-02T11:56:21;97699.50;;;9.31;75.19
7268;BME280;3675;43.276;27.962;2024-03-02T11:58:53;97705.66;;;9.29;75.04
7268;BME280;3675;43.276;27.962;2024-03-02T12:01:25;97702.25;;;9.28;74.75
7268;BME280;3675;43.276;27.962;2024-03-02T12:03:59;97697.03;;;9.11;74.14
7268;BME280;3675;43.276;27.962;2024-03-02T12:06:30;97704.13;;;9.25;74.87
7268;BME280;3675;43.276;27.962;2024-03-02T12:09:02;97694.16;;;9.36;74.94
7268;BME280;3675;43.276;27.962;2024-03-02T12:11:34;97695.59;;;9.41;74.42
7268;BME280;3675;43.276;27.962;2024-03-02T12:14:11;97695.25;;;9.30;74.28
7268;BME280;3675;43.276;27.962;2024-03-02T12:16:44;97697.19;;;9.25;74.19
7268;BME280;3675;43.276;27.962;2024-03-02T12:19:17;97702.03;;;9.14;74.72
7268;BME280;3675;43.276;27.962;2024-03-02T12:21:48;97688.97;;;9.17;75.98
7268;BME280;3675;43.276;27.962;2024-03-02T12:24:20;97695.25;;;9.12;75.94
7268;BME280;3675;43.276;27.962;2024-03-02T12:26:52;97695.13;;;9.15;75.88
7268;BME280;3675;43.276;27.962;2024-03-02T12:29:23;97698.06;;;9.07;76.80
7268;BME280;3675;43.276;27.962;2024-03-02T12:31:54;97696.09;;;9.12;76.48
7268;BME280;3675;43.276;27.962;2024-03-02T12:34:28;97693.88;;;9.05;76.39
7268;BME280;3675;43.276;27.962;2024-03-02T12:36:59;97693.38;;;8.96;76.92
7268;BME280;3675;43.276;27.962;2024-03-02T12:39:29;97696.50;;;8.84;77.15
7268;BME280;3675;43.276;27.962;2024-03-02T12:42:04;97703.59;;;8.79;77.35
7268;BME280;3675;43.276;27.962;2024-03-02T12:44:35;97693.91;;;8.66;77.80
7268;BME280;3675;43.276;27.962;2024-03-02T12:47:07;97693.91;;;8.66;77.97
7268;BME280;3675;43.276;27.962;2024-03-02T12:49:43;97698.22;;;8.65;78.42
7268;BME280;3675;43.276;27.962;2024-03-02T12:52:17;97693.69;;;8.70;77.95
7268;BME280;3675;43.276;27.962;2024-03-02T12:54:49;97699.19;;;8.63;78.17
7268;BME280;3675;43.276;27.962;2024-03-02T12:57:25;97697.72;;;8.57;78.82
7268;BME280;3675;43.276;27.962;2024-03-02T12:59:58;97696.72;;;8.60;78.95
7268;BME280;3675;43.276;27.962;2024-03-02T13:02:30;97698.91;;;8.69;78.14
7268;BME280;3675;43.276;27.962;2024-03-02T13:05:06;97699.41;;;8.77;77.07
7268;BME280;3675;43.276;27.962;2024-03-02T13:07:38;97694.19;;;8.78;76.39
7268;BME280;3675;43.276;27.962;2024-03-02T13:10:10;97700.13;;;8.80;76.45
7268;BME280;3675;43.276;27.962;2024-03-02T13:12:43;97702.81;;;8.77;77.16
7268;BME280;3675;43.276;27.962;2024-03-02T13:15:16;97706.81;;;8.84;76.24
7268;BME280;3675;43.276;27.962;2024-03-02T13:17:56;97703.81;;;8.75;76.53
7268;BME280;3675;43.276;27.962;2024-03-02T13:20:33;97709.59;;;8.80;75.26
7268;BME280;3675;43.276;27.962;2024-03-02T13:23:14;97698.22;;;8.65;75.84
7268;BME280;3675;43.276;27.962;2024-03-02T13:25:57;97702.97;;;8.74;75.32
7268;BME280;3675;43.276;27.962;2024-03-02T13:28:43;97699.56;;;8.74;75.10
7268;BME280;3675;43.276;27.962;2024-03-02T13:31:36;97701.88;;;8.60;75.03
7268;BME280;3675;43.276;27.962;2024-03-02T13:34:24;97703.72;;;8.57;75.63
7268;BME280;3675;43.276;27.962;2024-03-02T13:37:08;97711.34;;;8.59;75.28
7268;BME280;3675;43.276;27.962;2024-03-02T13:40:03;97713.69;;;8.65;75.63
7268;BME280;3675;43.276;27.962;2024-03-02T13:42:54;97710.13;;;8.68;76.05
7268;BME280;3675;43.276;27.962;2024-03-02T13:45:29;97703.16;;;8.70;75.83
7268;BME280;3675;43.276;27.962;2024-03-02T13:48:20;97707.22;;;8.75;75.49
7268;BME280;3675;43.276;27.962;2024-03-02T13:50:51;97698.91;;;8.69;76.23
7268;BME280;3675;43.276;27.962;2024-03-02T13:53:25;97703.88;;;8.73;76.08